Time;durP1;ratioP1;P1;durP2;ratioP2;P2;SDS_P1;SDS_P2;PMS_P1;PMS_P2;Temp;Humidity;BMP_temperature;BMP_pressure;BME280_temperature;BME280_humidity;BME280_pressure;Samples;Min_cycle;Max_cycle;Signal;HPM_P1;HPM_P2
2021/08/23 00:01:38;;;;;;;;;7.00;7.00;;;;;19.26;61.63;101576.59;4893833;28;45773;-86
2021/08/23 00:07:25;;;;;;;;;6.25;5.50;;;;;19.05;61.46;101533.38;5058468;28;45632;-85
2021/08/23 00:09:51;;;;;;;;;5.75;4.75;;;;;19.17;61.61;101553.50;5040940;28;45607;-84
2021/08/23 00:12:16;;;;;;;;;5.50;5.25;;;;;19.18;61.51;101557.00;5039212;28;45396;-85
2021/08/23 00:14:43;;;;;;;;;7.25;7.00;;;;;19.03;61.86;101529.19;5056553;28;46532;-84
2021/08/23 00:17:08;;;;;;;;;6.25;6.00;;;;;19.02;61.80;101528.34;5038620;28;47199;-84
2021/08/23 00:19:34;;;;;;;;;6.50;6.00;;;;;19.03;61.86;101535.34;5038540;28;45735;-85
2021/08/23 00:22:20;;;;;;;;;5.50;5.50;;;;;19.28;61.51;101563.97;5056892;28;45810;-85
2021/08/23 00:24:46;;;;;;;;;6.00;6.00;;;;;19.02;61.90;101511.56;5038175;28;47504;-84
2021/08/23 00:27:12;;;;;;;;;4.75;4.75;;;;;19.23;61.80;101539.66;5056514;28;46135;-84
2021/08/23 00:29:37;;;;;;;;;7.50;5.50;;;;;19.08;61.98;101527.78;5038682;28;45820;-85
2021/08/23 00:32:03;;;;;;;;;6.00;5.75;;;;;19.33;61.45;101558.22;5038681;28;45645;-86
2021/08/23 00:37:50;;;;;;;;;7.25;5.25;;;;;19.07;62.15;101510.16;5056483;28;45640;-85
2021/08/23 00:40:17;;;;;;;;;5.00;5.00;;;;;19.36;62.20;101560.63;5038545;28;45684;-86
2021/08/23 00:42:42;;;;;;;;;5.75;4.75;;;;;19.17;61.88;101550.84;5056588;28;45602;-85
2021/08/23 00:45:08;;;;;;;;;6.75;5.75;;;;;19.38;61.65;101560.47;5038132;28;47623;-87
2021/08/23 00:47:35;;;;;;;;;5.50;4.75;;;;;19.09;62.20;101523.31;5055463;28;45855;-86
2021/08/23 00:50:00;;;;;;;;;6.00;5.00;;;;;19.22;61.84;101530.00;5056877;28;45784;-84
2021/08/23 00:52:26;;;;;;;;;7.00;6.50;;;;;19.40;61.73;101556.69;5039022;28;46009;-83
2021/08/23 00:54:52;;;;;;;;;6.00;5.75;;;;;19.24;61.91;101527.19;5038408;28;47545;-85
2021/08/23 00:57:17;;;;;;;;;6.00;6.00;;;;;19.36;61.87;101542.00;5038594;28;46919;-85
2021/08/23 00:59:43;;;;;;;;;9.50;8.75;;;;;19.24;61.68;101522.72;5056884;28;45652;-84
2021/08/23 01:08:36;;;;;;;;;7.75;7.00;;;;;19.43;61.96;101545.78;5056280;28;46040;-83
2021/08/23 01:11:04;;;;;;;;;7.00;5.50;;;;;19.28;61.67;101537.41;5056807;28;45870;-86
2021/08/23 01:13:33;;;;;;;;;9.00;7.00;;;;;19.23;62.03;101547.63;5038977;28;45923;-83
2021/08/23 01:15:58;;;;;;;;;3.50;3.50;;;;;19.31;62.11;101540.75;5038329;28;46722;-83
2021/08/23 01:18:24;;;;;;;;;5.75;5.50;;;;;19.07;62.45;101504.84;5058341;28;45681;-84
2021/08/23 01:20:51;;;;;;;;;4.75;4.75;;;;;18.98;62.16;101495.09;5057706;28;45648;-84
2021/08/23 01:23:19;;;;;;;;;5.50;5.00;;;;;19.37;62.42;101561.47;5058739;28;45834;-84
2021/08/23 01:25:46;;;;;;;;;4.75;3.75;;;;;19.26;62.08;101544.69;5044142;28;48241;-85
2021/08/23 01:28:28;;;;;;;;;6.75;5.75;;;;;19.17;62.52;101544.69;5045042;28;47294;-82
2021/08/23 01:31:36;;;;;;;;;5.50;5.00;;;;;19.28;62.48;101571.94;5078903;28;45859;-84
2021/08/23 01:34:01;;;;;;;;;5.75;4.50;;;;;19.07;62.96;101535.88;5018582;28;45708;-84
2021/08/23 01:36:27;;;;;;;;;4.25;3.50;;;;;19.14;62.85;101543.16;4997699;28;47391;-84
2021/08/23 01:38:52;;;;;;;;;5.00;5.00;;;;;19.00;62.69;101521.50;5014072;28;47241;-85
2021/08/23 01:41:18;;;;;;;;;4.25;3.50;;;;;18.78;63.00;101482.81;5014995;28;45827;-84
2021/08/23 01:43:45;;;;;;;;;6.00;5.25;;;;;19.04;62.83;101526.41;4997605;28;45591;-85
2021/08/23 01:46:10;;;;;;;;;5.75;5.00;;;;;18.97;62.88;101516.47;4997546;28;47872;-83
2021/08/23 01:48:36;;;;;;;;;5.50;5.25;;;;;19.08;63.17;101543.72;4996881;28;47594;-85
2021/08/23 01:51:02;;;;;;;;;4.00;4.00;;;;;19.04;62.90;101530.88;5013235;28;45703;-84
2021/08/23 01:53:27;;;;;;;;;4.75;4.50;;;;;18.98;62.97;101524.31;5013726;28;45686;-85
2021/08/23 01:55:53;;;;;;;;;6.00;5.50;;;;;18.96;62.98;101533.38;4996263;28;46563;-84
2021/08/23 01:58:19;;;;;;;;;3.75;3.75;;;;;18.91;63.47;101533.78;4996218;28;48125;-83
2021/08/23 02:00:44;;;;;;;;;6.00;5.50;;;;;19.13;63.53;101556.56;4996154;28;45541;-84
2021/08/23 02:03:10;;;;;;;;;5.50;5.00;;;;;19.03;63.30;101551.28;4996796;28;46161;-83
2021/08/23 02:05:35;;;;;;;;;4.50;4.25;;;;;18.84;63.61;101532.66;4996344;28;47626;-84
2021/08/23 02:08:01;;;;;;;;;6.25;4.75;;;;;19.09;63.29;101553.38;5012619;28;47822;-84
2021/08/23 02:10:27;;;;;;;;;6.00;5.00;;;;;19.00;63.92;101543.56;5001857;28;46048;-84
2021/08/23 02:12:52;;;;;;;;;4.75;4.50;;;;;19.03;63.53;101548.63;5050836;28;45832;-84
2021/08/23 02:15:18;;;;;;;;;8.00;5.50;;;;;19.08;63.35;101559.66;5017251;28;47279;-85
2021/08/23 02:17:43;;;;;;;;;5.00;4.00;;;;;18.74;63.57;101506.13;5016707;28;48349;-85
2021/08/23 02:20:11;;;;;;;;;6.75;5.75;;;;;18.90;63.73;101528.63;5050401;28;45689;-85
2021/08/23 02:22:37;;;;;;;;;5.75;4.50;;;;;18.56;63.66;101475.13;5018105;28;45842;-84
2021/08/23 02:25:07;;;;;;;;;5.75;4.50;;;;;18.70;64.21;101512.69;5038603;28;45526;-84
2021/08/23 02:27:32;;;;;;;;;5.50;5.50;;;;;18.65;63.69;101512.28;5027283;28;47950;-83
2021/08/23 02:29:58;;;;;;;;;7.00;6.00;;;;;18.66;63.75;101511.31;5025617;28;45661;-84
2021/08/23 02:32:23;;;;;;;;;6.25;5.00;;;;;18.64;63.69;101507.94;5026207;28;45625;-83
2021/08/23 02:38:10;;;;;;;;;5.00;5.00;;;;;18.86;64.08;101558.13;5034754;28;45608;-84
2021/08/23 02:40:36;;;;;;;;;6.25;4.75;;;;;18.65;64.24;101530.03;5035078;28;45729;-83
2021/08/23 02:43:01;;;;;;;;;6.75;6.25;;;;;18.75;64.20;101534.34;5050108;28;45994;-84
2021/08/23 02:45:27;;;;;;;;;7.00;7.00;;;;;18.56;64.45;101512.28;5017279;28;47531;-84
2021/08/23 02:47:53;;;;;;;;;8.25;5.75;;;;;18.89;64.61;101569.47;5016283;28;47155;-85
2021/08/23 02:50:18;;;;;;;;;5.25;4.75;;;;;18.45;64.20;101486.69;5035243;28;45554;-84
2021/08/23 02:52:44;;;;;;;;;7.75;6.00;;;;;18.54;64.41;101508.88;5057273;28;45569;-84
2021/08/23 02:55:10;;;;;;;;;9.75;6.50;;;;;18.55;64.45;101506.13;5077523;28;46559;-83
2021/08/23 02:57:35;;;;;;;;;7.00;6.75;;;;;18.65;64.24;101537.97;5077628;28;45711;-84
2021/08/23 03:00:06;;;;;;;;;7.75;6.50;;;;;18.81;64.75;101565.66;5058925;28;45667;-83
2021/08/23 03:02:31;;;;;;;;;6.75;5.50;;;;;18.60;64.77;101525.13;5074793;27;45920;-83
2021/08/23 03:08:19;;;;;;;;;8.25;8.00;;;;;18.79;64.94;101556.16;5075818;28;45732;-84
2021/08/23 03:10:44;;;;;;;;;6.00;5.25;;;;;18.65;64.96;101535.34;5080037;28;45686;-84
2021/08/23 03:13:10;;;;;;;;;7.75;6.00;;;;;18.50;65.06;101505.69;5085770;28;45651;-84
2021/08/23 03:15:35;;;;;;;;;6.50;6.00;;;;;18.72;64.62;101547.09;5066936;28;48541;-85
2021/08/23 03:18:01;;;;;;;;;9.00;7.25;;;;;18.73;65.06;101551.41;5101064;27;46893;-84
2021/08/23 03:20:26;;;;;;;;;9.00;8.00;;;;;18.57;64.29;101516.63;5088286;28;45319;-83
2021/08/23 03:22:52;;;;;;;;;9.50;7.00;;;;;18.81;65.21;101562.16;5065125;28;45552;-83
2021/08/23 03:25:17;;;;;;;;;6.75;6.50;;;;;18.77;65.30;101548.34;5083377;28;45689;-84
2021/08/23 03:27:43;;;;;;;;;6.00;6.00;;;;;18.81;64.84;101559.50;5065379;28;46171;-83
2021/08/23 03:30:09;;;;;;;;;7.50;7.00;;;;;18.55;65.44;101519.41;5083289;28;45569;-84
2021/08/23 03:32:35;;;;;;;;;7.75;7.75;;;;;18.45;65.13;101514.06;5060827;28;45961;-84
2021/08/23 03:38:22;;;;;;;;;6.75;6.50;;;;;18.69;65.29;101547.34;5078092;28;45730;-83
2021/08/23 03:40:47;;;;;;;;;7.00;7.00;;;;;18.59;65.08;101539.38;5060278;28;45693;-84
2021/08/23 03:43:14;;;;;;;;;7.25;6.75;;;;;18.51;65.78;101517.13;5094604;27;45653;-84
2021/08/23 03:45:39;;;;;;;;;9.50;8.50;;;;;18.58;65.73;101531.53;5059840;28;46450;-84
2021/08/23 03:48:05;;;;;;;;;8.00;6.75;;;;;18.55;65.83;101534.47;5078314;28;45921;-84
2021/08/23 03:54:06;;;;;;;;;6.50;6.50;;;;;18.56;65.74;101523.72;5068841;28;45760;-85
2021/08/23 03:56:31;;;;;;;;;9.00;8.00;;;;;18.66;65.45;101543.16;5059632;28;47621;-84
2021/08/23 03:58:56;;;;;;;;;9.00;6.50;;;;;18.71;65.32;101545.41;5059646;28;46902;-82
2021/08/23 04:01:22;;;;;;;;;7.50;7.50;;;;;18.66;65.47;101543.16;5093596;27;45679;-82
2021/08/23 04:03:47;;;;;;;;;7.50;7.00;;;;;18.50;65.62;101495.06;5093733;27;45687;-83
2021/08/23 04:06:13;;;;;;;;;7.75;7.00;;;;;18.74;65.31;101545.94;5066074;28;47144;-83
2021/08/23 04:08:39;;;;;;;;;6.50;6.25;;;;;18.84;65.72;101551.25;5100294;28;45593;-83
2021/08/23 04:11:05;;;;;;;;;6.25;6.00;;;;;18.85;65.63;101544.97;5109004;27;45471;-82
2021/08/23 04:13:30;;;;;;;;;7.00;6.75;;;;;18.72;65.60;101528.50;5083543;28;45611;-83
2021/08/23 04:15:56;;;;;;;;;8.50;7.00;;;;;18.71;65.25;101519.69;5088469;28;45623;-83
2021/08/23 04:18:22;;;;;;;;;9.00;7.25;;;;;18.70;65.20;101518.00;5098432;27;47033;-84
2021/08/23 04:20:47;;;;;;;;;8.75;7.25;;;;;18.56;65.77;101491.03;5085580;28;45543;-83
2021/08/23 04:23:13;;;;;;;;;7.75;5.50;;;;;18.48;65.88;101474.94;5082898;28;45651;-83
2021/08/23 04:25:38;;;;;;;;;11.25;9.00;;;;;18.68;65.62;101514.63;5084122;28;45707;-83
2021/08/23 04:28:04;;;;;;;;;9.00;7.75;;;;;18.59;65.52;101506.69;5068781;28;48038;-84
2021/08/23 04:30:29;;;;;;;;;9.50;7.25;;;;;18.83;65.66;101537.16;5080971;28;45552;-84
2021/08/23 04:32:54;;;;;;;;;8.75;7.75;;;;;18.55;65.46;101489.38;5061353;28;45709;-84
2021/08/23 04:38:42;;;;;;;;;8.25;7.25;;;;;18.78;65.72;101531.44;5082560;28;45817;-84
2021/08/23 04:41:08;;;;;;;;;7.00;7.00;;;;;18.71;65.52;101525.00;5103889;28;45192;-83
2021/08/23 04:43:34;;;;;;;;;7.75;7.75;;;;;18.86;65.81;101547.50;5070950;28;45239;-84
2021/08/23 04:46:00;;;;;;;;;9.50;7.00;;;;;18.67;65.68;101512.16;5103458;27;45633;-84
2021/08/23 04:48:25;;;;;;;;;10.50;9.75;;;;;18.98;66.18;101569.44;5084411;27;46831;-86
2021/08/23 04:50:50;;;;;;;;;8.00;7.25;;;;;18.84;65.91;101541.47;5084927;28;45034;-86
2021/08/23 04:53:16;;;;;;;;;7.50;6.50;;;;;18.88;66.07;101549.19;5103259;27;45043;-88
2021/08/23 04:55:41;;;;;;;;;9.50;8.25;;;;;18.76;66.30;101540.50;5098503;27;45541;-83
2021/08/23 04:58:06;;;;;;;;;8.25;8.25;;;;;18.98;65.97;101569.44;5065563;28;46904;-84
2021/08/23 05:00:32;;;;;;;;;11.00;10.00;;;;;18.78;66.42;101549.19;5086948;28;45505;-84
2021/08/23 05:02:57;;;;;;;;;10.00;9.00;;;;;18.83;66.66;101544.28;5071187;28;45417;-82
2021/08/23 05:08:46;;;;;;;;;11.75;10.75;;;;;18.92;66.80;101566.50;5103438;28;45235;-84
2021/08/23 05:11:11;;;;;;;;;11.75;10.50;;;;;18.87;66.82;101566.94;5099310;28;45163;-85
2021/08/23 05:13:37;;;;;;;;;14.25;11.75;;;;;18.99;66.59;101587.06;5099588;28;45315;-85
2021/08/23 05:16:03;;;;;;;;;12.50;11.50;;;;;19.00;66.89;101591.38;5067666;28;47572;-86
2021/08/23 05:18:28;;;;;;;;;12.75;11.75;;;;;18.93;66.26;101584.97;5096145;27;45577;-84
2021/08/23 05:24:16;;;;;;;;;14.25;13.00;;;;;18.99;66.32;101592.38;5091917;28;45587;-86
2021/08/23 05:26:41;;;;;;;;;13.75;13.00;;;;;18.99;66.60;101596.84;5082924;28;47478;-85
2021/08/23 05:29:07;;;;;;;;;12.75;12.00;;;;;18.74;66.81;101551.25;5080511;28;45947;-86
2021/08/23 05:31:32;;;;;;;;;12.50;11.75;;;;;18.79;66.43;101567.59;5079858;28;45350;-85
2021/08/23 05:33:57;;;;;;;;;12.50;11.50;;;;;18.80;66.52;101557.84;5077983;28;45228;-85
2021/08/23 05:36:23;;;;;;;;;14.25;11.50;;;;;19.00;66.74;101599.34;5064676;28;47162;-86
2021/08/23 05:38:49;;;;;;;;;14.00;13.00;;;;;18.88;66.33;101576.59;5094207;27;47289;-85
2021/08/23 05:41:14;;;;;;;;;14.25;13.75;;;;;18.70;66.45;101557.00;5078358;28;45664;-85
2021/08/23 05:43:40;;;;;;;;;13.75;13.75;;;;;18.91;66.26;101591.38;5058478;28;45929;-85
2021/08/23 05:46:05;;;;;;;;;12.75;12.50;;;;;19.01;66.65;101608.16;5076391;28;46522;-84
2021/08/23 05:48:32;;;;;;;;;12.50;11.25;;;;;18.72;66.20;101561.19;5057902;28;47413;-85
2021/08/23 05:54:19;;;;;;;;;16.25;14.75;;;;;19.04;66.69;101623.84;5071489;28;45724;-85
2021/08/23 05:56:44;;;;;;;;;14.25;13.00;;;;;18.84;66.38;101583.97;5075900;28;46466;-84
2021/08/23 05:59:09;;;;;;;;;15.75;15.00;;;;;18.92;66.67;101601.03;5057382;28;46651;-85
2021/08/23 06:01:35;;;;;;;;;14.25;12.75;;;;;18.85;66.41;101584.81;5075857;28;45548;-85
2021/08/23 06:04:01;;;;;;;;;13.75;12.25;;;;;19.04;66.77;101627.34;5075985;28;45743;-86
2021/08/23 06:06:26;;;;;;;;;16.00;14.00;;;;;18.76;66.25;101575.03;5057494;28;47362;-85
2021/08/23 06:08:52;;;;;;;;;16.50;14.25;;;;;18.59;66.38;101554.47;5057161;28;46957;-86
2021/08/23 06:11:17;;;;;;;;;18.25;15.25;;;;;18.50;66.38;101534.88;5091579;27;45666;-86
2021/08/23 06:13:46;;;;;;;;;13.00;12.75;;;;;18.99;66.52;101626.06;5076178;28;45715;-85
2021/08/23 06:16:11;;;;;;;;;15.75;14.25;;;;;18.98;66.48;101630.53;5057630;28;45773;-84
2021/08/23 06:18:36;;;;;;;;;16.25;14.50;;;;;18.69;66.22;101584.50;5075977;28;46160;-86
2021/08/23 06:24:24;;;;;;;;;17.00;15.75;;;;;18.94;66.29;101626.50;5075782;28;45674;-85
2021/08/23 06:26:49;;;;;;;;;18.75;17.00;;;;;18.96;66.05;101629.00;5057885;28;48617;-85
2021/08/23 06:29:15;;;;;;;;;19.50;16.75;;;;;18.97;65.64;101635.97;5091548;27;48197;-87
2021/08/23 06:31:41;;;;;;;;;16.25;14.50;;;;;18.75;65.71;101602.53;5075974;28;45588;-85
2021/08/23 06:34:07;;;;;;;;;17.75;13.50;;;;;18.95;65.61;101625.50;5057415;28;45546;-86
2021/08/23 06:36:34;;;;;;;;;16.50;15.25;;;;;18.93;65.72;101621.31;5075947;28;45492;-85
2021/08/23 06:38:59;;;;;;;;;19.25;15.25;;;;;18.86;65.70;101602.44;5057695;28;47435;-84
2021/08/23 06:41:25;;;;;;;;;13.75;13.00;;;;;19.05;65.62;101637.00;5057951;28;46148;-85
2021/08/23 06:43:51;;;;;;;;;15.50;15.25;;;;;18.75;65.57;101578.66;5076342;28;45528;-84
2021/08/23 06:46:17;;;;;;;;;13.75;12.00;;;;;18.68;65.38;101570.38;5056711;28;48772;-85
2021/08/23 06:48:42;;;;;;;;;13.50;13.00;;;;;18.75;65.69;101579.50;5057032;28;46985;-84
2021/08/23 06:54:30;;;;;;;;;11.00;11.00;;;;;19.02;64.87;101612.50;5075764;28;45874;-84
2021/08/23 06:56:55;;;;;;;;;12.75;12.00;;;;;18.99;64.94;101607.47;5082370;28;45848;-85
2021/08/23 06:59:20;;;;;;;;;13.75;11.75;;;;;19.06;65.36;101620.03;5064037;28;48388;-83
2021/08/23 07:01:46;;;;;;;;;13.75;13.00;;;;;18.92;65.15;101591.25;5082388;28;45646;-84
2021/08/23 07:04:11;;;;;;;;;14.50;12.75;;;;;19.11;64.87;101622.31;5097773;27;45933;-84
2021/08/23 07:06:36;;;;;;;;;13.50;11.75;;;;;19.16;64.92;101633.34;5076341;28;45766;-83
2021/08/23 07:09:02;;;;;;;;;13.75;12.75;;;;;19.11;65.04;101612.50;5056901;28;48056;-86
2021/08/23 07:11:28;;;;;;;;;12.00;12.00;;;;;18.94;64.65;101588.47;5075040;28;45954;-85
2021/08/23 07:13:54;;;;;;;;;11.75;11.75;;;;;19.25;64.67;101625.38;5056793;28;45302;-84
2021/08/23 07:16:19;;;;;;;;;13.00;11.00;;;;;19.01;64.91;101593.06;5075653;28;46843;-84
2021/08/23 07:18:47;;;;;;;;;11.25;10.25;;;;;19.36;64.50;101648.31;5076007;28;46067;-83
2021/08/23 07:24:35;;;;;;;;;12.00;12.00;;;;;19.40;64.71;101651.53;5080772;28;45651;-84
2021/08/23 07:27:04;;;;;;;;;10.75;10.75;;;;;19.01;64.97;101576.28;5081481;28;45490;-84
2021/08/23 07:29:30;;;;;;;;;13.00;10.25;;;;;19.46;64.24;101645.69;5063130;28;47469;-84
2021/08/23 07:31:55;;;;;;;;;13.75;13.25;;;;;19.46;64.16;101653.66;5076699;28;45624;-85
2021/08/23 07:34:21;;;;;;;;;13.75;12.50;;;;;19.16;64.68;101601.47;5074436;28;45527;-86
2021/08/23 07:36:48;;;;;;;;;13.25;11.25;;;;;19.50;64.53;101655.03;5089712;27;47192;-84
2021/08/23 07:39:14;;;;;;;;;11.75;10.75;;;;;19.50;64.10;101645.25;5089613;27;47423;-84
2021/08/23 07:41:39;;;;;;;;;7.50;6.50;;;;;19.43;64.50;101633.50;5056291;28;45614;-84
2021/08/23 07:44:05;;;;;;;;;13.25;12.25;;;;;19.53;64.30;101647.66;5056532;28;45716;-85
2021/08/23 07:46:30;;;;;;;;;13.50;12.50;;;;;19.28;64.15;101595.84;5055803;28;48818;-85
2021/08/23 07:48:55;;;;;;;;;13.50;12.25;;;;;19.46;64.18;101622.59;5074260;28;46265;-84
2021/08/23 07:54:43;;;;;;;;;13.00;11.00;;;;;19.62;63.87;101636.16;5072261;28;45719;-83
2021/08/23 07:57:08;;;;;;;;;10.75;9.50;;;;;19.56;63.88;101630.56;5060330;28;48541;-86
2021/08/23 07:59:34;;;;;;;;;11.00;11.00;;;;;19.57;63.99;101630.44;5078376;28;46730;-85
2021/08/23 08:01:59;;;;;;;;;10.75;10.75;;;;;19.43;63.58;101614.06;5078102;28;45695;-83
2021/08/23 08:04:24;;;;;;;;;14.75;12.75;;;;;19.36;63.71;101581.88;5061146;28;45680;-84
2021/08/23 08:06:50;;;;;;;;;10.50;9.50;;;;;19.40;63.50;101588.56;5097853;27;46257;-84
2021/08/23 08:09:15;;;;;;;;;10.00;9.00;;;;;19.58;63.48;101615.31;5081159;28;45623;-86
2021/08/23 08:11:40;;;;;;;;;10.00;8.50;;;;;19.46;63.43;101585.38;5078084;28;45646;-85
2021/08/23 08:14:06;;;;;;;;;12.00;9.25;;;;;19.65;63.53;101622.56;5059646;28;45670;-85
2021/08/23 08:16:31;;;;;;;;;10.50;10.00;;;;;19.67;63.10;101627.75;5059834;28;45873;-87
2021/08/23 08:18:57;;;;;;;;;8.75;8.50;;;;;19.51;63.17;101595.59;5077780;28;45495;-86
2021/08/23 08:24:44;;;;;;;;;9.50;9.50;;;;;19.96;62.64;101651.63;5078126;28;45735;-87
2021/08/23 08:27:10;;;;;;;;;10.25;9.25;;;;;19.99;63.28;101640.69;5078256;28;45684;-87
2021/08/23 08:29:35;;;;;;;;;12.75;12.00;;;;;19.93;62.61;101633.28;5096681;27;47427;-86
2021/08/23 08:32:01;;;;;;;;;11.25;11.25;;;;;19.83;62.48;101612.03;5062832;28;45805;-87
2021/08/23 08:34:28;;;;;;;;;10.25;9.00;;;;;19.91;62.56;101611.31;5063363;28;45897;-85
2021/08/23 08:40:15;;;;;;;;;9.50;9.25;;;;;20.09;62.42;101625.53;5083828;28;45584;-85
2021/08/23 08:42:40;;;;;;;;;10.25;9.50;;;;;20.22;62.21;101639.34;5081795;28;45659;-86
2021/08/23 08:45:06;;;;;;;;;11.75;11.00;;;;;20.19;61.96;101625.50;5063092;28;45929;-86
2021/08/23 08:47:34;;;;;;;;;12.00;10.25;;;;;20.25;62.49;101612.44;5083807;28;45554;-86
2021/08/23 08:50:02;;;;;;;;;11.50;10.00;;;;;20.02;61.83;101573.91;5086361;28;45708;-85
2021/08/23 08:52:28;;;;;;;;;10.00;8.75;;;;;20.24;61.58;101616.09;5085779;28;45572;-84
2021/08/23 08:54:57;;;;;;;;;11.50;9.75;;;;;20.15;61.61;101581.53;5084226;28;45631;-85
2021/08/23 08:57:22;;;;;;;;;9.00;7.00;;;;;20.39;61.72;101616.47;5082668;28;45905;-84
2021/08/23 08:59:49;;;;;;;;;10.25;9.00;;;;;20.35;61.11;101599.13;5077652;28;46128;-85
2021/08/23 09:02:15;;;;;;;;;8.25;8.25;;;;;20.43;61.25;101607.19;5060976;28;45671;-85
2021/08/23 09:11:18;;;;;;;;;10.25;9.25;;;;;20.78;60.87;101652.53;5080096;28;45636;-88
2021/08/23 09:13:58;;;;;;;;;11.50;9.00;;;;;20.58;60.71;101615.50;5061470;28;45662;-88
2021/08/23 09:16:32;;;;;;;;;11.50;9.75;;;;;20.81;60.77;101640.75;5080244;28;45636;-86
2021/08/23 09:18:58;;;;;;;;;7.75;6.50;;;;;20.52;60.32;101601.81;5078771;28;45667;-86
2021/08/23 09:21:33;;;;;;;;;9.50;8.00;;;;;20.83;60.36;101652.13;5077640;28;46022;-86
2021/08/23 09:23:59;;;;;;;;;7.00;6.50;;;;;20.74;60.76;101632.53;5058909;28;45808;-87
2021/08/23 09:26:31;;;;;;;;;10.00;9.00;;;;;20.85;60.32;101652.78;5063657;28;45668;-85
2021/08/23 09:29:03;;;;;;;;;8.75;7.75;;;;;20.70;60.76;101630.31;5084870;28;45712;-86
2021/08/23 09:31:36;;;;;;;;;8.00;8.00;;;;;20.87;59.91;101656.16;5085010;28;45896;-84
2021/08/23 09:34:10;;;;;;;;;9.00;7.00;;;;;20.87;60.47;101651.66;5085394;27;45517;-88
2021/08/23 09:36:36;;;;;;;;;7.25;6.50;;;;;20.80;60.47;101637.25;5086026;28;45587;-86
2021/08/23 09:39:07;;;;;;;;;9.75;9.00;;;;;20.81;60.04;101635.44;5080913;28;45610;-88
2021/08/23 09:41:40;;;;;;;;;8.75;8.50;;;;;20.80;60.31;101644.41;5081351;28;46390;-91
2021/08/23 09:44:08;;;;;;;;;9.00;8.50;;;;;20.84;60.08;101640.44;5082357;28;45628;-88
2021/08/23 09:46:35;;;;;;;;;8.75;8.75;;;;;20.94;59.91;101655.38;5081513;28;45592;-89
2021/08/23 09:49:03;;;;;;;;;7.75;7.00;;;;;20.98;60.00;101655.09;5079301;28;47771;-88
2021/08/23 09:51:37;;;;;;;;;8.50;7.75;;;;;20.89;59.81;101640.84;5084123;28;45546;-88
2021/08/23 09:54:15;;;;;;;;;10.00;8.00;;;;;20.74;60.07;101611.22;5070641;28;45579;-89
2021/08/23 09:56:43;;;;;;;;;7.50;7.00;;;;;21.01;59.78;101658.28;5062199;28;45851;-85
2021/08/23 09:59:13;;;;;;;;;8.75;7.50;;;;;20.92;59.91;101640.53;5079142;28;46501;-89
2021/08/23 10:01:39;;;;;;;;;9.25;7.25;;;;;20.66;59.86;101605.81;5078668;28;45472;-89
2021/08/23 10:04:05;;;;;;;;;8.50;8.00;;;;;20.66;59.67;101611.13;5092164;28;45308;-86
2021/08/23 10:06:33;;;;;;;;;9.00;7.25;;;;;20.98;60.01;101658.59;5085926;28;45469;-82
2021/08/23 10:09:02;;;;;;;;;9.00;9.00;;;;;20.81;60.18;101625.63;5102189;27;48485;-84
2021/08/23 10:11:31;;;;;;;;;7.00;6.25;;;;;21.03;60.00;101660.81;5086736;28;46542;-84
2021/08/23 10:13:58;;;;;;;;;10.50;7.00;;;;;21.03;59.88;101648.31;5078216;28;45757;-83
2021/08/23 10:16:24;;;;;;;;;5.00;4.00;;;;;20.77;60.05;101629.56;5058837;28;45640;-86
2021/08/23 10:18:49;;;;;;;;;8.00;7.00;;;;;20.88;60.21;101639.19;5077295;28;46424;-84
2021/08/23 10:21:15;;;;;;;;;6.75;6.00;;;;;20.75;59.68;101612.91;5076706;28;46366;-86
2021/08/23 10:23:42;;;;;;;;;6.00;6.00;;;;;20.91;60.20;101637.03;5076246;28;45510;-85
2021/08/23 10:26:08;;;;;;;;;9.00;7.25;;;;;21.00;59.83;101645.13;5091755;27;45916;-86
2021/08/23 10:28:36;;;;;;;;;7.00;6.75;;;;;21.08;59.92;101661.19;5076569;28;46807;-86
2021/08/23 10:31:10;;;;;;;;;6.00;6.00;;;;;20.98;60.00;101637.28;5091918;27;48305;-87
2021/08/23 10:33:42;;;;;;;;;7.75;6.75;;;;;20.98;59.82;101644.44;5075706;28;45525;-85
2021/08/23 10:36:08;;;;;;;;;8.25;6.50;;;;;20.84;59.78;101617.31;5057599;28;45573;-87
2021/08/23 10:38:34;;;;;;;;;9.50;8.00;;;;;20.91;59.92;101623.72;5057503;28;47562;-88
2021/08/23 10:41:15;;;;;;;;;6.50;6.00;;;;;21.06;59.83;101656.00;5057746;28;47550;-87
2021/08/23 10:43:58;;;;;;;;;9.25;7.50;;;;;21.02;60.20;101654.63;5057984;28;45986;-86
2021/08/23 10:46:25;;;;;;;;;8.00;6.75;;;;;20.84;60.29;101633.28;5059313;28;45873;-82
2021/08/23 10:48:52;;;;;;;;;5.00;5.00;;;;;20.98;60.16;101641.78;5093866;27;47856;-83
2021/08/23 10:51:36;;;;;;;;;5.75;5.75;;;;;20.90;60.24;101638.03;5077913;28;45801;-84
2021/08/23 10:54:08;;;;;;;;;8.00;6.00;;;;;20.97;60.09;101648.09;5079258;28;45631;-85
2021/08/23 10:56:40;;;;;;;;;7.00;6.75;;;;;20.90;60.63;101651.34;5076850;28;45596;-84
2021/08/23 10:59:14;;;;;;;;;7.75;6.00;;;;;20.85;60.39;101639.47;5113146;27;47092;-84
2021/08/23 11:01:39;;;;;;;;;8.00;6.50;;;;;20.90;60.60;101648.69;5098677;28;45390;-87
2021/08/23 11:04:07;;;;;;;;;8.50;7.75;;;;;20.89;60.65;101651.53;5101389;28;45228;-84
2021/08/23 11:06:33;;;;;;;;;8.00;6.25;;;;;20.62;60.67;101611.59;5101361;27;45318;-85
2021/08/23 11:09:11;;;;;;;;;6.25;6.25;;;;;20.73;60.60;101622.03;5102367;27;47525;-86
2021/08/23 11:11:38;;;;;;;;;8.50;7.75;;;;;20.90;60.84;101639.84;5089966;28;46465;-85
2021/08/23 11:14:21;;;;;;;;;6.50;6.00;;;;;20.90;60.92;101658.50;5088686;28;45453;-86
2021/08/23 11:16:54;;;;;;;;;10.00;9.00;;;;;20.83;60.93;101636.97;5081378;28;45612;-86
2021/08/23 11:19:24;;;;;;;;;8.75;7.75;;;;;21.00;61.16;101651.28;5059327;28;48349;-85
2021/08/23 11:21:57;;;;;;;;;9.75;7.75;;;;;20.83;60.69;101607.66;5075945;28;45841;-85
2021/08/23 11:24:30;;;;;;;;;8.00;8.00;;;;;20.86;60.97;101606.50;5075624;28;45653;-84
2021/08/23 11:27:00;;;;;;;;;8.75;8.25;;;;;20.98;60.52;101607.97;5081521;28;45697;-84
2021/08/23 11:29:26;;;;;;;;;7.00;6.75;;;;;21.14;60.47;101631.28;5067379;28;48362;-85
2021/08/23 11:31:57;;;;;;;;;7.50;7.50;;;;;21.25;60.28;101637.25;5064020;28;47712;-88
2021/08/23 11:34:25;;;;;;;;;6.50;6.25;;;;;21.29;60.75;101643.09;5084760;28;45715;-86
2021/08/23 11:36:50;;;;;;;;;6.75;6.75;;;;;21.18;60.69;101606.84;5085599;28;45637;-84
2021/08/23 11:39:15;;;;;;;;;7.25;7.00;;;;;21.24;60.60;101624.91;5067497;28;48665;-88
2021/08/23 11:41:41;;;;;;;;;10.00;8.25;;;;;21.27;60.69;101618.41;5084537;28;45560;-87
2021/08/23 11:44:06;;;;;;;;;7.75;7.75;;;;;21.10;60.53;101596.09;5062391;28;46002;-86
2021/08/23 11:46:32;;;;;;;;;8.00;7.00;;;;;21.34;60.28;101648.81;5080862;28;45663;-89
2021/08/23 11:48:58;;;;;;;;;8.00;7.00;;;;;21.27;60.60;101624.56;5063068;28;47470;-86
2021/08/23 11:51:31;;;;;;;;;8.50;8.00;;;;;21.34;60.37;101633.66;5062671;28;47123;-86
2021/08/23 11:53:57;;;;;;;;;6.75;6.50;;;;;21.12;60.42;101593.25;5081752;28;45562;-87
2021/08/23 11:56:23;;;;;;;;;7.00;6.00;;;;;21.18;60.00;101592.69;5062536;28;45584;-88
2021/08/23 11:58:48;;;;;;;;;7.75;7.75;;;;;21.22;60.56;101596.72;5063075;28;46819;-88
2021/08/23 12:01:15;;;;;;;;;6.75;6.75;;;;;21.41;60.54;101615.22;5078686;28;47470;-88
2021/08/23 12:03:42;;;;;;;;;7.50;7.25;;;;;21.29;60.40;101584.44;5079083;28;45641;-88
2021/08/23 12:06:12;;;;;;;;;8.50;7.25;;;;;21.42;60.01;101616.88;5079445;28;45808;-87
2021/08/23 12:08:40;;;;;;;;;8.00;8.00;;;;;21.52;60.36;101628.31;5078892;28;45616;-89
2021/08/23 12:11:10;;;;;;;;;12.00;10.00;;;;;21.54;60.41;101622.81;5079108;28;46407;-88
2021/08/23 12:13:41;;;;;;;;;9.00;8.00;;;;;21.48;60.46;101605.63;5078956;28;45668;-86
2021/08/23 12:16:12;;;;;;;;;9.50;8.50;;;;;21.54;59.99;101617.50;5059327;28;45688;-86
2021/08/23 12:18:40;;;;;;;;;6.75;6.50;;;;;21.67;59.93;101633.91;5077690;28;46744;-85
2021/08/23 12:21:05;;;;;;;;;8.75;8.00;;;;;21.71;60.07;101627.25;5058999;28;47252;-85
2021/08/23 12:23:43;;;;;;;;;10.00;9.00;;;;;21.73;60.19;101615.44;5092515;27;45971;-86
2021/08/23 12:26:09;;;;;;;;;8.75;8.25;;;;;21.73;59.53;101626.13;5094185;27;45992;-83